createdAt,value
2019-05-11T00:00:24.790Z,11.58
2019-05-11T00:01:24.796Z,11.58
2019-05-11T00:02:24.768Z,11.55
2019-05-11T00:03:24.824Z,11.60
2019-05-11T00:04:24.737Z,11.65
2019-05-11T00:05:24.721Z,11.64
2019-05-11T00:06:24.707Z,11.65
2019-05-11T00:07:24.697Z,11.67
2019-05-11T00:08:24.685Z,11.69
2019-05-11T00:09:24.668Z,11.75
2019-05-11T00:10:24.657Z,11.75
2019-05-11T00:11:24.676Z,11.76
2019-05-11T00:12:24.635Z,11.86
2019-05-11T00:13:24.620Z,11.86
2019-05-11T00:14:24.609Z,11.80
2019-05-11T00:15:24.590Z,11.75
2019-05-11T00:16:24.581Z,11.75
2019-05-11T00:17:24.591Z,11.79
2019-05-11T00:18:24.551Z,11.62
2019-05-11T00:19:24.536Z,11.58
2019-05-11T00:20:24.527Z,11.55
2019-05-11T00:21:24.515Z,11.39
2019-05-11T00:22:24.503Z,11.33
2019-05-11T00:23:24.486Z,11.24
2019-05-11T00:24:24.476Z,11.22
2019-05-11T00:25:24.460Z,11.11
2019-05-11T00:26:24.443Z,11.06
2019-05-11T00:27:24.438Z,11.11
2019-05-11T00:28:24.418Z,11.15
2019-05-11T00:29:24.409Z,11.15
2019-05-11T00:30:24.395Z,11.25
2019-05-11T00:31:24.381Z,11.25
2019-05-11T00:32:24.366Z,11.37
2019-05-11T00:33:24.354Z,11.42
2019-05-11T00:34:24.345Z,11.43
2019-05-11T00:35:24.328Z,11.42
2019-05-11T00:36:24.319Z,11.51
2019-05-11T00:37:24.304Z,11.51
2019-05-11T00:38:24.294Z,11.54
2019-05-11T00:39:24.276Z,11.54
2019-05-11T00:40:24.271Z,11.57
2019-05-11T00:41:24.251Z,11.51
2019-05-11T00:42:24.235Z,11.55
2019-05-11T00:43:24.225Z,11.60
2019-05-11T00:44:24.215Z,11.52
2019-05-11T00:45:24.199Z,11.62
2019-05-11T00:46:24.185Z,11.64
2019-05-11T00:47:24.171Z,11.64
2019-05-11T00:48:24.157Z,11.65
2019-05-11T00:49:24.143Z,11.60
2019-05-11T00:50:38.050Z,11.62
2019-05-11T00:51:24.122Z,11.62
2019-05-11T00:52:24.105Z,11.61
2019-05-11T00:53:24.087Z,11.65
2019-05-11T00:54:24.082Z,11.65
2019-05-11T00:55:24.067Z,11.67
2019-05-11T00:56:24.056Z,11.62
2019-05-11T00:57:24.043Z,11.64
2019-05-11T00:58:24.025Z,11.65
2019-05-11T00:59:24.014Z,11.64
2019-05-11T01:00:24.016Z,11.69
2019-05-11T01:01:23.994Z,11.65
2019-05-11T01:02:23.975Z,11.57
2019-05-11T01:03:23.964Z,11.49
2019-05-11T01:04:23.953Z,11.61
2019-05-11T01:05:23.954Z,11.67
2019-05-11T01:06:23.950Z,11.54
2019-05-11T01:07:23.908Z,11.58
2019-05-11T01:08:23.901Z,11.46
2019-05-11T01:09:23.885Z,11.39
2019-05-11T01:10:40.067Z,11.27
2019-05-11T01:11:23.865Z,11.15
2019-05-11T01:12:23.848Z,10.96
2019-05-11T01:13:23.836Z,10.85
2019-05-11T01:14:23.824Z,10.82
2019-05-11T01:15:23.840Z,10.67
2019-05-11T01:16:23.792Z,10.67
2019-05-11T01:17:23.785Z,10.61
2019-05-11T01:18:23.775Z,10.60
2019-05-11T01:19:23.764Z,10.53
2019-05-11T01:20:23.741Z,10.60
2019-05-11T01:21:23.729Z,10.51
2019-05-11T01:22:23.704Z,10.40
2019-05-11T01:23:23.700Z,10.53
2019-05-11T01:24:23.687Z,10.60
2019-05-11T01:25:23.670Z,10.60
2019-05-11T01:26:23.659Z,10.53
2019-05-11T01:27:23.647Z,10.44
2019-05-11T01:28:23.638Z,10.45
2019-05-11T01:29:23.620Z,10.48
2019-05-11T01:30:23.605Z,10.44
2019-05-11T01:31:23.592Z,10.53
2019-05-11T01:32:23.578Z,10.45
2019-05-11T01:33:23.563Z,10.45
2019-05-11T01:34:23.556Z,10.44
2019-05-11T01:35:23.544Z,10.45
2019-05-11T01:36:23.531Z,10.51
2019-05-11T01:37:23.512Z,10.44
2019-05-11T01:38:23.497Z,10.60
2019-05-11T01:39:23.488Z,10.60
2019-05-11T01:40:23.473Z,10.64
2019-05-11T01:41:23.458Z,10.52
2019-05-11T01:42:23.447Z,10.70
2019-05-11T01:43:23.425Z,10.67
2019-05-11T01:44:23.416Z,10.64
2019-05-11T01:45:23.402Z,10.67
2019-05-11T01:46:23.387Z,10.55
2019-05-11T01:47:23.389Z,10.59
2019-05-11T01:48:23.534Z,10.53
2019-05-11T01:49:23.352Z,10.53
2019-05-11T01:50:23.343Z,10.55
2019-05-11T01:51:23.331Z,10.56
2019-05-11T01:52:23.301Z,10.48
2019-05-11T01:53:23.296Z,10.38
2019-05-11T01:54:23.285Z,10.29
2019-05-11T01:55:23.274Z,10.30
2019-05-11T01:56:23.256Z,10.27
2019-05-11T01:57:23.241Z,10.20
2019-05-11T01:58:23.228Z,10.17
2019-05-11T01:59:23.215Z,10.30
2019-05-11T02:00:23.205Z,10.29
2019-05-11T02:01:23.186Z,10.33
2019-05-11T02:02:23.172Z,10.44
2019-05-11T02:03:23.161Z,10.45
2019-05-11T02:04:23.146Z,10.48
2019-05-11T02:05:23.131Z,10.45
2019-05-11T02:06:23.123Z,10.47
2019-05-11T02:07:23.109Z,10.53
2019-05-11T02:08:23.091Z,10.53
2019-05-11T02:09:23.082Z,10.53
2019-05-11T02:10:23.071Z,10.52
2019-05-11T02:11:23.050Z,10.55
2019-05-11T02:12:23.039Z,10.53
2019-05-11T02:13:23.030Z,10.55
2019-05-11T02:14:23.015Z,10.53
2019-05-11T02:15:22.991Z,10.63
2019-05-11T02:16:22.984Z,10.68
2019-05-11T02:17:22.969Z,10.64
2019-05-11T02:18:22.955Z,10.71
2019-05-11T02:19:22.955Z,10.78
2019-05-11T02:20:22.941Z,10.67
2019-05-11T02:21:22.935Z,10.68
2019-05-11T02:22:22.897Z,10.66
2019-05-11T02:23:22.893Z,10.70
2019-05-11T02:24:22.880Z,10.59
2019-05-11T02:25:22.857Z,10.53
2019-05-11T02:26:22.850Z,10.42
2019-05-11T02:27:22.830Z,10.32
2019-05-11T02:28:22.818Z,10.27
2019-05-11T02:29:22.808Z,10.18
2019-05-11T02:30:22.794Z,10.20
2019-05-11T02:31:22.781Z,10.18
2019-05-11T02:32:22.767Z,10.25
2019-05-11T02:33:22.754Z,10.18
2019-05-11T02:34:22.740Z,10.29
2019-05-11T02:35:22.730Z,10.33
2019-05-11T02:36:22.713Z,10.42
2019-05-11T02:37:22.699Z,10.40
2019-05-11T02:38:22.684Z,10.47
2019-05-11T02:39:22.671Z,10.45
2019-05-11T02:40:22.668Z,10.56
2019-05-11T02:41:35.423Z,10.48
2019-05-11T02:42:22.630Z,10.63
2019-05-11T02:43:22.615Z,10.64
2019-05-11T02:44:22.606Z,10.67
2019-05-11T02:45:22.590Z,10.63
2019-05-11T02:46:22.574Z,10.66
2019-05-11T02:47:22.563Z,10.56
2019-05-11T02:48:22.558Z,10.60
2019-05-11T02:49:22.534Z,10.59
2019-05-11T02:50:22.516Z,10.60
2019-05-11T02:51:22.512Z,10.67
2019-05-11T02:52:22.498Z,10.66
2019-05-11T02:53:22.476Z,10.60
2019-05-11T02:54:22.464Z,10.68
2019-05-11T02:55:22.451Z,10.67
2019-05-11T02:56:22.440Z,10.64
2019-05-11T02:57:22.425Z,10.64
2019-05-11T02:58:22.411Z,10.66
2019-05-11T02:59:22.396Z,10.67
2019-05-11T03:00:22.384Z,10.71
2019-05-11T03:01:22.370Z,10.68
2019-05-11T03:02:22.361Z,10.68
2019-05-11T03:03:22.344Z,10.70
2019-05-11T03:04:22.329Z,10.74
2019-05-11T03:05:22.315Z,10.73
2019-05-11T03:06:22.301Z,10.68
2019-05-11T03:07:22.290Z,10.71
2019-05-11T03:08:22.277Z,10.73
2019-05-11T03:09:22.265Z,10.76
2019-05-11T03:10:22.250Z,10.85
2019-05-11T03:11:22.236Z,10.84
2019-05-11T03:12:22.217Z,10.81
2019-05-11T03:13:22.209Z,10.76
2019-05-11T03:14:22.190Z,10.82
2019-05-11T03:15:22.174Z,10.78
2019-05-11T03:16:22.166Z,10.74
2019-05-11T03:17:22.175Z,10.79
2019-05-11T03:18:22.197Z,10.88
2019-05-11T03:19:22.126Z,10.86
2019-05-11T03:20:22.113Z,10.85
2019-05-11T03:21:22.098Z,10.89
2019-05-11T03:22:22.081Z,10.84
2019-05-11T03:23:22.075Z,10.84
2019-05-11T03:24:24.091Z,10.91
2019-05-11T03:25:22.049Z,10.85
2019-05-11T03:26:22.027Z,10.92
2019-05-11T03:27:22.039Z,10.88
2019-05-11T03:28:22.000Z,10.97
2019-05-11T03:29:21.988Z,10.97
2019-05-11T03:30:21.971Z,10.92
2019-05-11T03:31:21.990Z,10.99
2019-05-11T03:32:21.962Z,11.00
2019-05-11T03:33:21.942Z,10.99
2019-05-11T03:34:21.927Z,10.99
2019-05-11T03:35:21.911Z,11.00
2019-05-11T03:36:21.890Z,10.99
2019-05-11T03:37:21.883Z,10.97
2019-05-11T03:38:21.864Z,10.97
2019-05-11T03:39:21.853Z,11.04
2019-05-11T03:40:21.840Z,11.03
2019-05-11T03:41:21.821Z,11.03
2019-05-11T03:42:21.815Z,11.04
2019-05-11T03:43:21.795Z,11.03
2019-05-11T03:44:21.793Z,11.07
2019-05-11T03:45:21.793Z,11.10
2019-05-11T03:46:21.760Z,11.06
2019-05-11T03:47:21.745Z,11.07
2019-05-11T03:48:21.728Z,11.09
2019-05-11T03:49:21.716Z,11.09
2019-05-11T03:50:21.695Z,11.07
2019-05-11T03:51:21.687Z,11.09
2019-05-11T03:52:21.683Z,11.07
2019-05-11T03:53:21.659Z,11.07
2019-05-11T03:54:21.645Z,11.03
2019-05-11T03:55:21.629Z,11.07
2019-05-11T03:56:21.666Z,11.10
2019-05-11T03:57:21.615Z,11.06
2019-05-11T03:58:25.737Z,11.03
2019-05-11T03:59:21.579Z,11.06
2019-05-11T04:00:21.563Z,11.14
2019-05-11T04:01:21.551Z,11.09
2019-05-11T04:02:21.535Z,11.06
2019-05-11T04:03:21.528Z,11.04
2019-05-11T04:04:21.517Z,11.07
2019-05-11T04:05:21.503Z,11.02
2019-05-11T04:06:21.481Z,10.92
2019-05-11T04:07:21.481Z,10.97
2019-05-11T04:08:21.456Z,10.88
2019-05-11T04:09:21.440Z,10.89
2019-05-11T04:10:25.141Z,10.94
2019-05-11T04:11:21.415Z,10.85
2019-05-11T04:12:34.168Z,10.92
2019-05-11T04:13:21.396Z,10.92
2019-05-11T04:14:21.371Z,11.02
2019-05-11T04:15:21.365Z,11.02
2019-05-11T04:16:21.341Z,11.02
2019-05-11T04:17:21.326Z,11.00
2019-05-11T04:18:21.332Z,10.97
2019-05-11T04:19:21.312Z,11.04
2019-05-11T04:20:21.299Z,11.06
2019-05-11T04:21:21.280Z,11.02
2019-05-11T04:22:21.262Z,10.99
2019-05-11T04:23:21.252Z,10.96
2019-05-11T04:24:21.247Z,10.85
2019-05-11T04:25:21.223Z,11.00
2019-05-11T04:26:21.217Z,10.97
2019-05-11T04:27:21.219Z,11.02
2019-05-11T04:28:21.186Z,11.06
2019-05-11T04:29:21.168Z,11.09
2019-05-11T04:30:21.158Z,11.06
2019-05-11T04:31:21.147Z,11.07
2019-05-11T04:32:21.127Z,11.11
2019-05-11T04:33:21.118Z,11.17
2019-05-11T04:34:21.099Z,11.14
2019-05-11T04:35:21.094Z,11.17
2019-05-11T04:36:21.079Z,11.07
2019-05-11T04:37:21.104Z,11.10
2019-05-11T04:38:21.137Z,11.06
2019-05-11T04:39:21.030Z,11.06
2019-05-11T04:40:21.035Z,11.10
2019-05-11T04:41:21.002Z,11.07
2019-05-11T04:42:20.995Z,11.07
2019-05-11T04:43:20.981Z,11.14
2019-05-11T04:44:20.964Z,11.14
2019-05-11T04:45:20.955Z,11.17
2019-05-11T04:46:20.938Z,11.15
2019-05-11T04:47:20.926Z,11.17
2019-05-11T04:48:20.913Z,11.19
2019-05-11T04:49:20.896Z,11.21
2019-05-11T04:50:20.880Z,11.18
2019-05-11T04:51:20.875Z,11.22
2019-05-11T04:52:20.854Z,11.27
2019-05-11T04:53:20.834Z,11.28
2019-05-11T04:54:20.843Z,11.29
2019-05-11T04:55:20.817Z,11.28
2019-05-11T04:56:20.800Z,11.40
2019-05-11T04:57:20.791Z,11.39
2019-05-11T04:58:20.778Z,11.37
2019-05-11T04:59:20.761Z,11.54
2019-05-11T05:00:20.748Z,11.55
2019-05-11T05:01:20.737Z,11.57
2019-05-11T05:02:21.806Z,11.60
2019-05-11T05:03:20.707Z,11.60
2019-05-11T05:04:20.697Z,11.62
2019-05-11T05:05:20.678Z,11.72
2019-05-11T05:06:24.020Z,11.61
2019-05-11T05:07:20.651Z,11.79
2019-05-11T05:08:21.105Z,11.82
2019-05-11T05:09:20.701Z,11.85
2019-05-11T05:10:22.308Z,11.94
2019-05-11T05:11:20.598Z,11.91
2019-05-11T05:12:20.592Z,11.83
2019-05-11T05:13:23.343Z,11.72
2019-05-11T05:14:20.556Z,11.67
2019-05-11T05:15:20.556Z,11.65
2019-05-11T05:16:20.534Z,11.65
2019-05-11T05:17:20.515Z,11.60
2019-05-11T05:18:20.507Z,11.65
2019-05-11T05:19:20.492Z,11.62
2019-05-11T05:20:20.477Z,11.58
2019-05-11T05:21:20.459Z,11.58
2019-05-11T05:22:20.456Z,11.57
2019-05-11T05:23:20.452Z,11.61
2019-05-11T05:24:20.429Z,11.58
2019-05-11T05:25:20.436Z,11.60
2019-05-11T05:26:20.400Z,11.60
2019-05-11T05:27:20.383Z,11.55
2019-05-11T05:28:20.372Z,11.52
2019-05-11T05:29:20.359Z,11.60
2019-05-11T05:30:20.349Z,11.62
2019-05-11T05:31:20.334Z,11.55
2019-05-11T05:32:20.322Z,11.60
2019-05-11T05:33:20.309Z,11.57
2019-05-11T05:34:20.293Z,11.61
2019-05-11T05:35:20.303Z,11.58
2019-05-11T05:36:20.267Z,11.58
2019-05-11T05:37:20.253Z,11.61
2019-05-11T05:38:20.243Z,11.58
2019-05-11T05:39:20.235Z,11.57
2019-05-11T05:40:20.238Z,11.67
2019-05-11T05:41:20.203Z,11.60
2019-05-11T05:42:20.184Z,11.72
2019-05-11T05:43:28.107Z,11.67
2019-05-11T05:44:20.154Z,11.65
2019-05-11T05:45:20.147Z,11.64
2019-05-11T05:46:20.133Z,11.76
2019-05-11T05:47:20.149Z,11.76
2019-05-11T05:48:20.104Z,11.83
2019-05-11T05:49:20.090Z,11.88
2019-05-11T05:50:20.081Z,11.90
2019-05-11T05:51:20.064Z,11.91
2019-05-11T05:52:20.054Z,11.94
2019-05-11T05:53:20.036Z,11.91
2019-05-11T05:54:20.082Z,11.88
2019-05-11T05:55:20.053Z,11.86
2019-05-11T05:56:20.003Z,11.99
2019-05-11T05:57:19.987Z,11.90
2019-05-11T05:58:19.976Z,11.95
2019-05-11T05:59:19.958Z,11.91
2019-05-11T06:00:19.947Z,11.95
2019-05-11T06:01:19.929Z,11.96
2019-05-11T06:02:19.925Z,12.02
2019-05-11T06:03:19.909Z,11.98
2019-05-11T06:04:19.893Z,11.99
2019-05-11T06:05:19.878Z,12.05
2019-05-11T06:06:19.862Z,12.02
2019-05-11T06:07:19.860Z,12.17
2019-05-11T06:08:19.845Z,12.16
2019-05-11T06:09:19.842Z,12.23
2019-05-11T06:10:19.818Z,12.41
2019-05-11T06:11:19.802Z,12.29
2019-05-11T06:12:19.790Z,12.42
2019-05-11T06:13:19.779Z,12.52
2019-05-11T06:14:19.763Z,12.57
2019-05-11T06:15:19.745Z,12.67
2019-05-11T06:16:19.759Z,12.67
2019-05-11T06:17:19.744Z,12.71
2019-05-11T06:18:19.706Z,12.75
2019-05-11T06:19:19.699Z,12.87
2019-05-11T06:20:19.682Z,12.74
2019-05-11T06:21:19.671Z,12.86
2019-05-11T06:22:19.657Z,12.82
2019-05-11T06:23:19.647Z,12.87
2019-05-11T06:24:19.637Z,12.87
2019-05-11T06:25:19.621Z,12.95
2019-05-11T06:26:19.609Z,12.87
2019-05-11T06:27:19.597Z,13.01
2019-05-11T06:28:19.585Z,13.08
2019-05-11T06:29:21.636Z,13.08
2019-05-11T06:30:19.562Z,13.17
2019-05-11T06:31:19.544Z,13.30
2019-05-11T06:32:19.531Z,13.17
2019-05-11T06:33:19.521Z,13.12
2019-05-11T06:34:19.507Z,13.15
2019-05-11T06:35:22.560Z,13.20
2019-05-11T06:36:19.478Z,13.15
2019-05-11T06:37:19.467Z,13.22
2019-05-11T06:38:19.454Z,13.25
2019-05-11T06:39:19.444Z,13.28
2019-05-11T06:40:19.431Z,13.42
2019-05-11T06:41:19.421Z,13.54
2019-05-11T06:42:19.409Z,13.63
2019-05-11T06:43:19.391Z,13.69
2019-05-11T06:44:19.397Z,13.62
2019-05-11T06:45:19.368Z,13.67
2019-05-11T06:46:19.354Z,13.69
2019-05-11T06:47:19.341Z,13.84
2019-05-11T06:48:19.328Z,13.88
2019-05-11T06:49:19.315Z,13.95
2019-05-11T06:50:19.311Z,13.88
2019-05-11T06:51:19.293Z,14.06
2019-05-11T06:52:19.283Z,14.06
2019-05-11T06:53:19.268Z,14.07
2019-05-11T06:54:19.250Z,14.10
2019-05-11T06:55:19.244Z,14.07
2019-05-11T06:56:19.236Z,14.18
2019-05-11T06:57:19.220Z,14.04
2019-05-11T06:58:19.206Z,14.06
2019-05-11T06:59:19.195Z,14.00
2019-05-11T07:00:19.186Z,14.09
2019-05-11T07:01:19.167Z,14.09
2019-05-11T07:02:19.154Z,14.12
2019-05-11T07:03:19.152Z,14.14
2019-05-11T07:04:19.134Z,14.20
2019-05-11T07:05:19.123Z,14.15
2019-05-11T07:06:19.113Z,14.25
2019-05-11T07:07:19.095Z,14.25
2019-05-11T07:08:19.087Z,14.24
2019-05-11T07:09:19.080Z,14.14
2019-05-11T07:10:19.062Z,14.21
2019-05-11T07:11:19.050Z,14.18
2019-05-11T07:12:19.101Z,14.21
2019-05-11T07:13:19.027Z,14.21
2019-05-11T07:14:21.198Z,14.22
2019-05-11T07:15:19.009Z,14.21
2019-05-11T07:16:18.986Z,14.17
2019-05-11T07:17:18.975Z,14.22
2019-05-11T07:18:18.979Z,14.15
2019-05-11T07:19:18.957Z,14.24
2019-05-11T07:20:18.939Z,14.22
2019-05-11T07:21:18.931Z,14.25
2019-05-11T07:22:18.913Z,14.36
2019-05-11T07:23:18.907Z,14.46
2019-05-11T07:24:18.895Z,14.46
2019-05-11T07:25:18.881Z,14.55
2019-05-11T07:26:18.870Z,14.58
2019-05-11T07:27:18.861Z,14.54
2019-05-11T07:28:18.850Z,14.54
2019-05-11T07:29:18.833Z,14.46
2019-05-11T07:30:18.826Z,14.46
2019-05-11T07:31:18.810Z,14.35
2019-05-11T07:32:24.983Z,14.32
2019-05-11T07:33:18.783Z,14.42
2019-05-11T07:34:18.772Z,14.35
2019-05-11T07:35:18.941Z,14.35
2019-05-11T07:36:18.752Z,14.37
2019-05-11T07:37:18.738Z,14.37
2019-05-11T07:38:18.727Z,14.47
2019-05-11T07:39:18.818Z,14.50
2019-05-11T07:40:18.997Z,14.54
2019-05-11T07:41:18.696Z,14.54
2019-05-11T07:42:18.678Z,14.57
2019-05-11T07:43:18.994Z,14.69
2019-05-11T07:44:19.159Z,14.68
2019-05-11T07:45:18.642Z,14.77
2019-05-11T07:46:18.638Z,14.75
2019-05-11T07:47:18.844Z,14.86
2019-05-11T07:48:18.818Z,14.96
2019-05-11T07:49:18.599Z,14.95
2019-05-11T07:50:18.587Z,14.88
2019-05-11T07:51:18.580Z,14.96
2019-05-11T07:52:18.560Z,15.06
2019-05-11T07:53:18.800Z,15.02
2019-05-11T07:54:18.803Z,14.99
2019-05-11T07:55:19.164Z,15.09
2019-05-11T07:56:18.905Z,15.06
2019-05-11T07:57:18.753Z,15.07
2019-05-11T07:58:20.262Z,15.03
2019-05-11T07:59:18.510Z,15.13
2019-05-11T08:00:18.750Z,15.13
2019-05-11T08:01:19.003Z,15.17
2019-05-11T08:02:18.450Z,15.17
2019-05-11T08:03:18.434Z,15.11
2019-05-11T08:04:18.489Z,15.16
2019-05-11T08:05:18.423Z,15.14
2019-05-11T08:06:18.600Z,15.16
2019-05-11T08:07:18.391Z,15.17
2019-05-11T08:08:18.381Z,15.13
2019-05-11T08:09:18.801Z,14.99
2019-05-11T08:10:18.705Z,14.99
2019-05-11T08:11:18.465Z,14.96
2019-05-11T08:12:19.174Z,14.96
2019-05-11T08:13:18.322Z,14.92
2019-05-11T08:14:18.438Z,14.94
2019-05-11T08:15:18.666Z,14.94
2019-05-11T08:16:18.721Z,14.94
2019-05-11T08:17:18.775Z,14.98
2019-05-11T08:18:18.954Z,14.92
2019-05-11T08:19:18.724Z,14.94
2019-05-11T08:20:18.795Z,14.94
2019-05-11T08:21:18.230Z,14.81
2019-05-11T08:22:22.529Z,14.84
2019-05-11T08:23:18.245Z,14.83
2019-05-11T08:24:18.202Z,14.92
2019-05-11T08:25:18.406Z,14.94
2019-05-11T08:26:18.986Z,14.91
2019-05-11T08:27:18.749Z,14.98
2019-05-11T08:28:18.422Z,14.98
2019-05-11T08:29:18.615Z,14.94
2019-05-11T08:30:18.751Z,14.92
2019-05-11T08:31:18.847Z,14.94
2019-05-11T08:32:18.381Z,14.91
2019-05-11T08:33:18.347Z,14.99
2019-05-11T08:34:18.145Z,14.99
2019-05-11T08:35:18.079Z,14.95
2019-05-11T08:36:18.538Z,15.01
2019-05-11T08:37:18.917Z,15.02
2019-05-11T08:38:18.211Z,14.94
2019-05-11T08:39:18.354Z,15.03
2019-05-11T08:40:18.432Z,15.07
2019-05-11T08:41:18.562Z,15.07
2019-05-11T08:42:18.096Z,15.07
2019-05-11T08:43:18.132Z,15.01
2019-05-11T08:44:18.266Z,15.10
2019-05-11T08:45:24.060Z,15.03
2019-05-11T08:46:18.681Z,15.06
2019-05-11T08:47:17.948Z,14.99
2019-05-11T08:48:18.720Z,14.98
2019-05-11T08:49:19.014Z,15.01
2019-05-11T08:50:18.719Z,14.98
2019-05-11T08:51:18.696Z,14.92
2019-05-11T08:52:18.639Z,14.58
2019-05-11T08:53:18.007Z,14.40
2019-05-11T08:54:18.401Z,14.22
2019-05-11T08:55:18.963Z,14.14
2019-05-11T08:56:18.893Z,14.03
2019-05-11T08:57:18.074Z,14.03
2019-05-11T08:58:19.460Z,14.06
2019-05-11T08:59:18.686Z,14.06
2019-05-11T09:00:18.131Z,14.10
2019-05-11T09:01:18.465Z,14.00
2019-05-11T09:02:18.635Z,14.02
2019-05-11T09:03:18.016Z,13.95
2019-05-11T09:04:18.359Z,13.91
2019-05-11T09:05:18.794Z,13.89
2019-05-11T09:06:18.106Z,13.89
2019-05-11T09:07:18.415Z,13.87
2019-05-11T09:08:18.780Z,13.85
2019-05-11T09:09:18.228Z,13.82
2019-05-11T09:10:18.562Z,13.88
2019-05-11T09:11:18.990Z,13.89
2019-05-11T09:12:18.356Z,13.95
2019-05-11T09:13:18.551Z,13.97
2019-05-11T09:14:18.839Z,13.96
2019-05-11T09:15:32.301Z,14.03
2019-05-11T09:16:18.990Z,14.06
2019-05-11T09:17:18.251Z,14.12
2019-05-11T09:18:18.764Z,14.24
2019-05-11T09:19:17.895Z,14.27
2019-05-11T09:20:18.061Z,14.29
2019-05-11T09:21:19.122Z,14.45
2019-05-11T09:22:18.714Z,14.58
2019-05-11T09:23:30.956Z,14.69
2019-05-11T09:24:18.947Z,14.80
2019-05-11T09:25:18.296Z,14.92
2019-05-11T09:26:18.144Z,15.02
2019-05-11T09:27:18.431Z,14.98
2019-05-11T09:28:18.003Z,15.02
2019-05-11T09:29:17.977Z,14.96
2019-05-11T09:30:18.386Z,14.95
2019-05-11T09:31:18.882Z,15.01
2019-05-11T09:32:18.079Z,15.01
2019-05-11T09:33:20.465Z,15.06
2019-05-11T09:34:18.134Z,14.96
2019-05-11T09:35:18.923Z,15.09
2019-05-11T09:36:18.135Z,15.02
2019-05-11T09:37:18.415Z,15.01
2019-05-11T09:38:18.555Z,14.89
2019-05-11T09:39:17.842Z,14.84
2019-05-11T09:40:18.246Z,14.84
2019-05-11T09:41:18.023Z,14.80
2019-05-11T09:42:17.920Z,14.75
2019-05-11T09:43:17.954Z,14.72
2019-05-11T09:44:18.274Z,14.72
2019-05-11T09:45:18.642Z,14.62
2019-05-11T09:46:18.820Z,14.60
2019-05-11T09:47:18.935Z,14.58
2019-05-11T09:48:17.940Z,14.58
2019-05-11T09:49:18.527Z,14.61
2019-05-11T09:50:17.869Z,14.61
2019-05-11T09:51:18.435Z,14.47
2019-05-11T09:52:18.367Z,14.47
2019-05-11T09:53:17.742Z,14.52
2019-05-11T09:54:18.276Z,14.62
2019-05-11T09:55:19.046Z,14.60
2019-05-11T09:56:18.418Z,14.61
2019-05-11T09:57:18.500Z,14.54
2019-05-11T09:58:19.636Z,14.54
2019-05-11T09:59:17.870Z,14.42
2019-05-11T10:00:17.907Z,14.42
2019-05-11T10:01:18.303Z,14.50
2019-05-11T10:02:20.675Z,14.35
2019-05-11T10:03:18.642Z,14.37
2019-05-11T10:04:18.104Z,14.35
2019-05-11T10:05:18.793Z,14.35
2019-05-11T10:06:18.965Z,14.24
2019-05-11T10:07:18.136Z,14.32
2019-05-11T10:08:18.332Z,14.28
2019-05-11T10:09:18.633Z,14.32
2019-05-11T10:10:18.693Z,14.21
2019-05-11T10:11:18.917Z,14.22
2019-05-11T10:12:18.083Z,14.21
2019-05-11T10:13:18.616Z,14.22
2019-05-11T10:14:18.771Z,14.17
2019-05-11T10:15:18.767Z,14.25
2019-05-11T10:16:17.826Z,14.20
2019-05-11T10:17:18.201Z,14.17
2019-05-11T10:18:18.607Z,14.18
2019-05-11T10:19:17.942Z,14.24
2019-05-11T10:20:18.160Z,14.18
2019-05-11T10:21:18.792Z,14.21
2019-05-11T10:22:18.537Z,14.22
2019-05-11T10:23:18.579Z,14.20
2019-05-11T10:24:17.781Z,14.25
2019-05-11T10:25:18.139Z,14.21
2019-05-11T10:26:18.699Z,14.25
2019-05-11T10:27:18.898Z,14.22
2019-05-11T10:28:17.865Z,14.25
2019-05-11T10:29:18.270Z,14.27
2019-05-11T10:30:18.602Z,14.28
2019-05-11T10:31:18.056Z,14.25
2019-05-11T10:32:18.331Z,14.28
2019-05-11T10:33:18.752Z,14.27
2019-05-11T10:34:17.998Z,14.29
2019-05-11T10:35:18.386Z,14.28
2019-05-11T10:36:18.804Z,14.25
2019-05-11T10:37:17.696Z,14.36
2019-05-11T10:38:18.104Z,14.37
2019-05-11T10:39:18.673Z,14.39
2019-05-11T10:40:18.922Z,14.36
2019-05-11T10:41:18.135Z,14.35
2019-05-11T10:42:18.027Z,14.33
2019-05-11T10:43:18.369Z,14.37
2019-05-11T10:44:18.603Z,14.40
2019-05-11T10:45:17.992Z,14.37
2019-05-11T10:46:22.496Z,14.20
2019-05-11T10:47:18.434Z,14.22
2019-05-11T10:48:17.746Z,14.25
2019-05-11T10:49:18.448Z,14.15
2019-05-11T10:50:18.562Z,14.03
2019-05-11T10:51:18.489Z,14.10
2019-05-11T10:52:17.988Z,14.07
2019-05-11T10:53:18.497Z,14.02
2019-05-11T10:54:18.513Z,14.00
2019-05-11T10:55:18.879Z,13.88
2019-05-11T10:56:17.882Z,13.96
2019-05-11T10:57:18.716Z,13.92
2019-05-11T10:58:18.482Z,13.89
2019-05-11T10:59:18.555Z,13.95
2019-05-11T11:00:17.789Z,13.91
2019-05-11T11:01:18.207Z,13.95
2019-05-11T11:02:18.358Z,13.95
2019-05-11T11:03:17.887Z,13.96
2019-05-11T11:04:18.376Z,14.00
2019-05-11T11:05:18.536Z,14.00
2019-05-11T11:06:18.603Z,14.00
2019-05-11T11:07:19.231Z,14.03
2019-05-11T11:08:18.370Z,14.03
2019-05-11T11:09:17.785Z,14.00
2019-05-11T11:10:18.177Z,13.97
2019-05-11T11:11:18.401Z,13.97
2019-05-11T11:12:18.597Z,13.97
2019-05-11T11:13:18.572Z,13.97
2019-05-11T11:14:18.089Z,13.96
2019-05-11T11:15:18.239Z,13.96
2019-05-11T11:16:32.796Z,13.89
2019-05-11T11:17:16.169Z,13.84
2019-05-11T11:18:18.665Z,13.87
2019-05-11T11:19:18.187Z,13.82
2019-05-11T11:20:18.485Z,13.78
2019-05-11T11:21:20.103Z,13.66
2019-05-11T11:22:35.430Z,13.66
2019-05-11T11:23:17.758Z,13.63
2019-05-11T11:24:17.958Z,13.69
2019-05-11T11:25:18.015Z,13.63
2019-05-11T11:26:18.235Z,13.67
2019-05-11T11:27:18.075Z,13.69
2019-05-11T11:28:17.553Z,13.64
2019-05-11T11:29:17.872Z,13.63
2019-05-11T11:30:18.044Z,13.62
2019-05-11T11:31:18.383Z,13.48
2019-05-11T11:32:18.238Z,13.36
2019-05-11T11:33:18.233Z,13.22
2019-05-11T11:34:15.967Z,13.08
2019-05-11T11:35:15.955Z,12.89
2019-05-11T11:36:17.934Z,12.85
2019-05-11T11:37:17.576Z,12.89
2019-05-11T11:38:18.092Z,12.62
2019-05-11T11:39:15.904Z,12.41
2019-05-11T11:40:17.700Z,12.16
2019-05-11T11:41:17.867Z,11.96
2019-05-11T11:42:17.815Z,11.85
2019-05-11T11:43:18.049Z,11.67
2019-05-11T11:44:18.303Z,11.49
2019-05-11T11:45:18.115Z,11.32
2019-05-11T11:46:15.818Z,11.27
2019-05-11T11:47:21.014Z,11.17
2019-05-11T11:48:15.815Z,11.24
2019-05-11T11:49:15.786Z,11.25
2019-05-11T11:50:17.794Z,11.29
2019-05-11T11:51:15.762Z,11.33
2019-05-11T11:52:15.742Z,11.39
2019-05-11T11:53:15.728Z,11.40
2019-05-11T11:54:17.957Z,11.49
2019-05-11T11:55:15.704Z,11.58
2019-05-11T11:56:15.694Z,11.57
2019-05-11T11:57:15.679Z,11.62
2019-05-11T11:58:19.810Z,11.55
2019-05-11T11:59:17.661Z,11.43
2019-05-11T12:00:18.123Z,11.35
2019-05-11T12:01:15.622Z,11.22
2019-05-11T12:02:15.614Z,11.09
2019-05-11T12:03:15.603Z,11.02
2019-05-11T12:04:15.583Z,10.97
2019-05-11T12:05:17.540Z,11.00
2019-05-11T12:06:17.961Z,11.04
2019-05-11T12:07:17.771Z,11.10
2019-05-11T12:08:15.533Z,11.04
2019-05-11T12:09:18.024Z,11.00
2019-05-11T12:10:15.509Z,10.99
2019-05-11T12:11:15.491Z,10.91
2019-05-11T12:12:15.477Z,10.85
2019-05-11T12:13:15.481Z,10.73
2019-05-11T12:14:15.458Z,10.71
2019-05-11T12:15:17.623Z,10.63
2019-05-11T12:16:17.768Z,10.68
2019-05-11T12:17:18.032Z,10.52
2019-05-11T12:18:15.396Z,10.63
2019-05-11T12:19:15.389Z,10.53
2019-05-11T12:20:15.368Z,10.38
2019-05-11T12:21:15.355Z,10.42
2019-05-11T12:22:15.344Z,10.36
2019-05-11T12:23:15.329Z,10.42
2019-05-11T12:24:15.321Z,10.33
2019-05-11T12:25:15.301Z,10.36
2019-05-11T12:26:17.525Z,10.29
2019-05-11T12:27:15.277Z,10.34
2019-05-11T12:28:15.261Z,10.18
2019-05-11T12:29:15.246Z,10.20
2019-05-11T12:30:15.235Z,10.11
2019-05-11T12:31:15.229Z,10.11
2019-05-11T12:32:15.206Z,10.17
2019-05-11T12:33:15.195Z,10.08
2019-05-11T12:34:15.178Z,10.09
2019-05-11T12:35:15.160Z,10.14
2019-05-11T12:36:15.156Z,10.08
2019-05-11T12:37:15.133Z,10.05
2019-05-11T12:38:15.119Z,10.08
2019-05-11T12:39:15.109Z,9.97
2019-05-11T12:40:15.102Z,9.97
2019-05-11T12:41:15.083Z,10.07
2019-05-11T12:42:15.061Z,10.05
2019-05-11T12:43:15.051Z,10.04
2019-05-11T12:44:15.037Z,9.83
2019-05-11T12:45:15.022Z,9.90
2019-05-11T12:46:15.009Z,9.90
2019-05-11T12:47:22.096Z,9.86
2019-05-11T12:48:14.978Z,9.60
2019-05-11T12:49:14.963Z,9.68
2019-05-11T12:50:14.950Z,9.53
2019-05-11T12:51:14.941Z,9.51
2019-05-11T12:52:14.929Z,9.39
2019-05-11T12:53:14.906Z,9.50